Terminal Aerodrome Forecast
Issued by NWS Wilmington, OH

Current Version | Previous Version | Graphics & Text | Print | Product List | Glossary On
Versions: 1 2 3 4 5 6 7 8 9 10 11 12 13 14 15 16 17 18 19 20 21 22 23
000
FTUS41 KILN 111144
TAFDAY
TAF
KDAY 111144Z 1112/1212 20005KT P6SM BKN025
     FM111400 17009KT P6SM SCT080 BKN120
     FM120400 22012KT P6SM SCT025 OVC090
     FM120800 27013G20KT P6SM -SHSN OVC008
     FM121000 29018G32KT 3SM -SHSN OVC012=

USA.gov is the U.S. government's official web portal to all federal, state and local government web resources and services.